createdAt,value
2023-05-01T00:00:43.370Z,275.81
2023-05-01T00:01:43.352Z,273.28
2023-05-01T00:02:43.445Z,269.47
2023-05-01T00:03:43.487Z,267.49
2023-05-01T00:04:43.342Z,266.40
2023-05-01T00:05:43.323Z,265.33
2023-05-01T00:06:43.421Z,263.20
2023-05-01T00:07:43.276Z,262.57
2023-05-01T00:08:43.333Z,262.57
2023-05-01T00:09:43.267Z,260.69
2023-05-01T00:10:43.276Z,260.89
2023-05-01T00:11:43.261Z,261.73
2023-05-01T00:12:43.220Z,261.73
2023-05-01T00:13:43.231Z,260.69
2023-05-01T00:14:43.269Z,260.89
2023-05-01T00:15:43.233Z,259.45
2023-05-01T00:16:43.304Z,259.86
2023-05-01T00:17:43.203Z,259.66
2023-05-01T00:18:43.163Z,258.23
2023-05-01T00:19:43.146Z,258.43
2023-05-01T00:20:43.166Z,258.02
2023-05-01T00:21:43.145Z,258.63
2023-05-01T00:22:43.120Z,256.21
2023-05-01T00:23:43.112Z,256.21
2023-05-01T00:24:43.121Z,256.81
2023-05-01T00:25:43.092Z,258.02
2023-05-01T00:26:43.136Z,257.42
2023-05-01T00:27:43.071Z,254.42
2023-05-01T00:28:43.056Z,254.42
2023-05-01T00:29:43.033Z,253.63
2023-05-01T00:30:43.033Z,253.83
2023-05-01T00:31:43.071Z,253.63
2023-05-01T00:32:43.064Z,252.66
2023-05-01T00:33:42.999Z,251.69
2023-05-01T00:34:42.992Z,252.27
2023-05-01T00:35:42.977Z,251.50
2023-05-01T00:36:42.991Z,250.15
2023-05-01T00:37:42.981Z,250.54
2023-05-01T00:38:42.941Z,250.54
2023-05-01T00:39:42.945Z,251.30
2023-05-01T00:40:42.930Z,251.11
2023-05-01T00:41:42.960Z,249.01
2023-05-01T00:42:42.911Z,249.96
2023-05-01T00:43:42.926Z,247.51
2023-05-01T00:44:42.893Z,247.33
2023-05-01T00:45:42.914Z,247.51
2023-05-01T00:46:42.896Z,244.74
2023-05-01T00:47:42.909Z,247.14
2023-05-01T00:48:42.843Z,245.48
2023-05-01T00:49:42.836Z,245.66
2023-05-01T00:50:42.823Z,244.56
2023-05-01T00:51:42.834Z,244.74
2023-05-01T00:52:42.803Z,244.38
2023-05-01T00:53:42.777Z,244.56
2023-05-01T00:54:42.798Z,245.66
2023-05-01T00:55:42.785Z,245.11
2023-05-01T00:56:42.822Z,247.51
2023-05-01T00:57:42.743Z,243.47
2023-05-01T00:58:42.736Z,245.11
2023-05-01T00:59:42.717Z,246.03
2023-05-01T01:00:42.712Z,246.58
2023-05-01T01:01:42.888Z,245.66
2023-05-01T01:02:42.718Z,246.95
2023-05-01T01:03:42.675Z,246.95
2023-05-01T01:04:42.751Z,248.64
2023-05-01T01:05:42.658Z,248.45
2023-05-01T01:06:42.805Z,247.89
2023-05-01T01:07:42.697Z,250.15
2023-05-01T01:08:42.626Z,250.15
2023-05-01T01:09:42.620Z,251.30
2023-05-01T01:10:42.619Z,251.11
2023-05-01T01:11:42.629Z,253.83
2023-05-01T01:12:42.600Z,252.85
2023-05-01T01:13:42.564Z,252.08
2023-05-01T01:14:42.555Z,252.08
2023-05-01T01:15:42.556Z,251.11
2023-05-01T01:16:42.616Z,251.50
2023-05-01T01:17:42.566Z,251.30
2023-05-01T01:18:42.504Z,249.20
2023-05-01T01:19:42.514Z,249.96
2023-05-01T01:20:42.565Z,250.92
2023-05-01T01:21:42.479Z,249.39
2023-05-01T01:22:42.474Z,249.39
2023-05-01T01:23:42.468Z,249.58
2023-05-01T01:24:42.447Z,248.26
2023-05-01T01:25:42.426Z,248.07
2023-05-01T01:26:42.430Z,246.95
2023-05-01T01:27:42.411Z,247.33
2023-05-01T01:28:42.440Z,248.83
2023-05-01T01:29:42.390Z,247.89
2023-05-01T01:30:42.436Z,247.33
2023-05-01T01:31:42.411Z,246.77
2023-05-01T01:32:42.440Z,245.66
2023-05-01T01:33:42.374Z,245.66
2023-05-01T01:34:42.348Z,246.77
2023-05-01T01:35:42.331Z,246.03
2023-05-01T01:36:42.321Z,243.83
2023-05-01T01:37:42.318Z,243.47
2023-05-01T01:38:42.316Z,242.75
2023-05-01T01:39:42.281Z,243.29
2023-05-01T01:40:42.271Z,241.68
2023-05-01T01:41:42.265Z,240.97
2023-05-01T01:42:42.254Z,242.39
2023-05-01T01:43:42.296Z,238.86
2023-05-01T01:44:42.267Z,240.09
2023-05-01T01:45:42.208Z,238.86
2023-05-01T01:46:42.334Z,238.34
2023-05-01T01:47:42.264Z,238.86
2023-05-01T01:48:42.237Z,236.62
2023-05-01T01:49:42.206Z,237.31
2023-05-01T01:50:42.158Z,236.11
2023-05-01T01:51:42.167Z,235.10
2023-05-01T01:52:42.140Z,234.43
2023-05-01T01:53:42.178Z,236.62
2023-05-01T01:54:42.155Z,233.93
2023-05-01T01:55:42.117Z,235.27
2023-05-01T01:56:42.116Z,232.93
2023-05-01T01:57:42.093Z,233.93
2023-05-01T01:58:42.076Z,232.60
2023-05-01T01:59:42.084Z,232.10
2023-05-01T02:00:42.111Z,232.27
2023-05-01T02:01:42.201Z,232.76
2023-05-01T02:02:42.252Z,232.60
2023-05-01T02:03:42.112Z,230.15
2023-05-01T02:04:42.024Z,229.19
2023-05-01T02:05:42.014Z,230.15
2023-05-01T02:06:42.030Z,227.60
2023-05-01T02:07:42.008Z,227.44
2023-05-01T02:08:41.970Z,228.39
2023-05-01T02:09:41.961Z,225.72
2023-05-01T02:10:42.017Z,225.41
2023-05-01T02:11:41.934Z,224.33
2023-05-01T02:12:41.938Z,223.72
2023-05-01T02:13:41.924Z,223.72
2023-05-01T02:14:41.944Z,222.65
2023-05-01T02:15:41.945Z,222.65
2023-05-01T02:16:42.077Z,221.45
2023-05-01T02:17:41.942Z,220.56
2023-05-01T02:18:41.877Z,220.12
2023-05-01T02:19:41.902Z,219.67
2023-05-01T02:20:41.834Z,220.12
2023-05-01T02:21:41.832Z,218.79
2023-05-01T02:22:41.823Z,218.94
2023-05-01T02:23:41.822Z,219.09
2023-05-01T02:24:41.843Z,219.82
2023-05-01T02:25:41.803Z,219.09
2023-05-01T02:26:41.788Z,218.07
2023-05-01T02:27:41.771Z,218.79
2023-05-01T02:28:41.760Z,218.07
2023-05-01T02:29:41.785Z,219.23
2023-05-01T02:30:41.732Z,218.65
2023-05-01T02:31:41.779Z,218.94
2023-05-01T02:32:41.739Z,218.65
2023-05-01T02:33:41.735Z,219.67
2023-05-01T02:34:41.711Z,219.82
2023-05-01T02:35:41.695Z,219.67
2023-05-01T02:36:41.672Z,217.92
2023-05-01T02:37:41.658Z,219.67
2023-05-01T02:38:41.648Z,219.53
2023-05-01T02:39:41.698Z,218.36
2023-05-01T02:40:41.634Z,218.94
2023-05-01T02:41:41.618Z,219.23
2023-05-01T02:42:41.612Z,219.23
2023-05-01T02:43:41.590Z,219.38
2023-05-01T02:44:41.605Z,218.50
2023-05-01T02:45:41.636Z,219.23
2023-05-01T02:46:41.610Z,221.30
2023-05-01T02:47:41.571Z,219.82
2023-05-01T02:48:41.535Z,218.94
2023-05-01T02:49:41.598Z,219.38
2023-05-01T02:50:41.508Z,219.09
2023-05-01T02:51:41.530Z,218.94
2023-05-01T02:52:41.494Z,219.67
2023-05-01T02:53:41.516Z,221.45
2023-05-01T02:54:41.485Z,221.75
2023-05-01T02:55:41.510Z,222.20
2023-05-01T02:56:41.454Z,221.45
2023-05-01T02:57:41.447Z,221.60
2023-05-01T02:58:41.447Z,223.11
2023-05-01T02:59:41.440Z,223.57
2023-05-01T03:00:41.435Z,224.64
2023-05-01T03:01:41.497Z,224.02
2023-05-01T03:02:41.458Z,224.02
2023-05-01T03:03:41.461Z,225.72
2023-05-01T03:04:41.395Z,225.25
2023-05-01T03:05:41.389Z,225.10
2023-05-01T03:06:41.550Z,226.65
2023-05-01T03:07:41.347Z,225.41
2023-05-01T03:08:41.332Z,226.18
2023-05-01T03:09:41.339Z,226.81
2023-05-01T03:10:41.301Z,226.65
2023-05-01T03:11:41.322Z,225.87
2023-05-01T03:12:41.270Z,227.60
2023-05-01T03:13:41.285Z,226.81
2023-05-01T03:14:41.260Z,227.91
2023-05-01T03:15:41.354Z,227.76
2023-05-01T03:16:41.319Z,226.81
2023-05-01T03:17:41.258Z,228.07
2023-05-01T03:18:41.222Z,227.76
2023-05-01T03:19:41.212Z,228.87
2023-05-01T03:20:41.199Z,229.03
2023-05-01T03:21:41.200Z,228.55
2023-05-01T03:22:41.191Z,228.39
2023-05-01T03:23:41.171Z,227.91
2023-05-01T03:24:41.143Z,228.87
2023-05-01T03:25:41.163Z,228.87
2023-05-01T03:26:41.147Z,227.12
2023-05-01T03:27:41.113Z,227.76
2023-05-01T03:28:41.135Z,226.65
2023-05-01T03:29:41.103Z,226.34
2023-05-01T03:30:41.080Z,226.18
2023-05-01T03:31:41.193Z,227.12
2023-05-01T03:32:41.080Z,225.10
2023-05-01T03:33:41.062Z,226.18
2023-05-01T03:34:41.046Z,224.79
2023-05-01T03:35:41.115Z,225.56
2023-05-01T03:36:41.040Z,224.64
2023-05-01T03:37:41.001Z,224.02
2023-05-01T03:38:41.002Z,224.94
2023-05-01T03:39:40.977Z,222.35
2023-05-01T03:40:40.962Z,222.65
2023-05-01T03:41:40.989Z,222.50
2023-05-01T03:42:40.976Z,221.75
2023-05-01T03:43:40.944Z,221.01
2023-05-01T03:44:40.937Z,220.12
2023-05-01T03:45:43.281Z,220.71
2023-05-01T03:46:41.117Z,219.97
2023-05-01T03:47:40.916Z,219.38
2023-05-01T03:48:40.889Z,219.53
2023-05-01T03:49:40.877Z,219.23
2023-05-01T03:50:40.863Z,218.36
2023-05-01T03:51:40.920Z,217.63
2023-05-01T03:52:40.851Z,218.94
2023-05-01T03:53:40.821Z,218.07
2023-05-01T03:54:40.828Z,218.65
2023-05-01T03:55:40.822Z,218.36
2023-05-01T03:56:40.787Z,217.49
2023-05-01T03:57:40.869Z,217.78
2023-05-01T03:58:40.767Z,217.06
2023-05-01T03:59:40.768Z,217.92
2023-05-01T04:00:40.752Z,217.20
2023-05-01T04:01:40.808Z,218.50
2023-05-01T04:02:40.854Z,218.94
2023-05-01T04:03:40.813Z,216.91
2023-05-01T04:04:40.931Z,217.63
2023-05-01T04:05:40.746Z,217.20
2023-05-01T04:06:40.839Z,216.77
2023-05-01T04:07:40.705Z,215.91
2023-05-01T04:08:40.673Z,216.20
2023-05-01T04:09:40.667Z,214.93
2023-05-01T04:10:40.660Z,213.94
2023-05-01T04:11:40.634Z,213.53
2023-05-01T04:12:40.654Z,213.11
2023-05-01T04:13:40.614Z,212.70
2023-05-01T04:14:40.611Z,211.74
2023-05-01T04:15:40.631Z,211.05
2023-05-01T04:16:40.621Z,211.46
2023-05-01T04:17:40.610Z,212.01
2023-05-01T04:18:40.553Z,211.05
2023-05-01T04:19:40.577Z,209.04
2023-05-01T04:20:40.538Z,210.24
2023-05-01T04:21:40.527Z,210.51
2023-05-01T04:22:40.549Z,209.71
2023-05-01T04:23:40.523Z,208.64
2023-05-01T04:24:40.485Z,209.44
2023-05-01T04:25:40.476Z,209.30
2023-05-01T04:26:40.466Z,209.17
2023-05-01T04:27:40.486Z,209.57
2023-05-01T04:28:40.452Z,209.17
2023-05-01T04:29:40.443Z,209.71
2023-05-01T04:30:40.431Z,209.97
2023-05-01T04:31:40.422Z,210.11
2023-05-01T04:32:40.472Z,208.77
2023-05-01T04:33:40.394Z,209.84
2023-05-01T04:34:40.385Z,210.11
2023-05-01T04:35:40.372Z,209.30
2023-05-01T04:36:40.406Z,209.57
2023-05-01T04:37:40.380Z,208.77
2023-05-01T04:38:40.344Z,209.30
2023-05-01T04:39:40.323Z,209.71
2023-05-01T04:40:40.313Z,209.04
2023-05-01T04:41:40.316Z,209.04
2023-05-01T04:42:40.326Z,209.04
2023-05-01T04:43:40.291Z,208.64
2023-05-01T04:44:40.315Z,208.51
2023-05-01T04:45:40.280Z,208.11
2023-05-01T04:46:40.308Z,208.90
2023-05-01T04:47:40.330Z,207.58
2023-05-01T04:48:40.227Z,208.24
2023-05-01T04:49:40.251Z,208.64
2023-05-01T04:50:40.204Z,208.51
2023-05-01T04:51:40.188Z,208.37
2023-05-01T04:52:40.226Z,209.17
2023-05-01T04:53:40.171Z,208.90
2023-05-01T04:54:40.168Z,208.37
2023-05-01T04:55:40.146Z,209.97
2023-05-01T04:56:40.196Z,209.97
2023-05-01T04:57:40.155Z,209.30
2023-05-01T04:58:40.117Z,209.84
2023-05-01T04:59:40.103Z,209.44
2023-05-01T05:00:40.107Z,209.04
2023-05-01T05:01:40.168Z,209.57
2023-05-01T05:02:40.204Z,208.24
2023-05-01T05:03:40.159Z,211.05
2023-05-01T05:04:40.056Z,208.77
2023-05-01T05:05:40.048Z,209.57
2023-05-01T05:06:40.131Z,207.32
2023-05-01T05:07:40.034Z,206.15
2023-05-01T05:08:40.047Z,205.63
2023-05-01T05:09:40.008Z,206.54
2023-05-01T05:10:40.007Z,204.73
2023-05-01T05:11:39.986Z,204.60
2023-05-01T05:12:40.019Z,203.72
2023-05-01T05:13:39.955Z,203.21
2023-05-01T05:14:39.942Z,202.46
2023-05-01T05:15:39.944Z,203.84
2023-05-01T05:16:40.082Z,202.21
2023-05-01T05:17:39.965Z,201.34
2023-05-01T05:18:40.014Z,200.11
2023-05-01T05:19:39.901Z,201.09
2023-05-01T05:20:39.874Z,200.60
2023-05-01T05:21:39.880Z,200.97
2023-05-01T05:22:39.893Z,199.14
2023-05-01T05:23:39.862Z,199.02
2023-05-01T05:24:39.834Z,197.46
2023-05-01T05:25:39.864Z,197.94
2023-05-01T05:26:39.826Z,199.02
2023-05-01T05:27:39.837Z,198.06
2023-05-01T05:28:39.824Z,196.87
2023-05-01T05:29:39.778Z,197.58
2023-05-01T05:30:39.792Z,197.23
2023-05-01T05:31:39.808Z,196.87
2023-05-01T05:32:39.829Z,198.18
2023-05-01T05:33:39.754Z,196.52
2023-05-01T05:34:39.728Z,197.23
2023-05-01T05:35:39.703Z,196.05
2023-05-01T05:36:39.729Z,197.46
2023-05-01T05:37:39.697Z,196.52
2023-05-01T05:38:39.722Z,196.52
2023-05-01T05:39:39.686Z,195.00
2023-05-01T05:40:39.702Z,195.58
2023-05-01T05:41:39.671Z,195.35
2023-05-01T05:42:39.643Z,195.70
2023-05-01T05:43:39.669Z,195.23
2023-05-01T05:44:39.628Z,195.58
2023-05-01T05:45:39.630Z,195.93
2023-05-01T05:46:39.707Z,195.58
2023-05-01T05:47:39.606Z,196.40
2023-05-01T05:48:39.588Z,196.52
2023-05-01T05:49:39.602Z,196.05
2023-05-01T05:50:39.559Z,196.75
2023-05-01T05:51:39.677Z,197.94
2023-05-01T05:52:39.554Z,197.23
2023-05-01T05:53:39.528Z,197.94
2023-05-01T05:54:39.541Z,197.23
2023-05-01T05:55:39.522Z,197.94
2023-05-01T05:56:39.488Z,198.18
2023-05-01T05:57:39.499Z,198.90
2023-05-01T05:58:39.485Z,199.38
2023-05-01T05:59:39.456Z,198.66
2023-05-01T06:00:39.456Z,198.06
2023-05-01T06:01:39.427Z,199.50
2023-05-01T06:02:39.582Z,198.90
2023-05-01T06:03:39.525Z,198.90
2023-05-01T06:04:39.440Z,200.36
2023-05-01T06:05:39.434Z,199.75
2023-05-01T06:06:39.538Z,199.99
2023-05-01T06:07:39.386Z,199.26
2023-05-01T06:08:39.386Z,198.90
2023-05-01T06:09:39.349Z,199.63
2023-05-01T06:10:39.389Z,199.63
2023-05-01T06:11:39.336Z,200.36
2023-05-01T06:12:39.349Z,200.24
2023-05-01T06:13:39.306Z,200.97
2023-05-01T06:14:39.339Z,202.09
2023-05-01T06:15:39.297Z,203.09
2023-05-01T06:16:39.362Z,202.83
2023-05-01T06:17:39.331Z,203.84
2023-05-01T06:18:39.300Z,203.72
2023-05-01T06:19:39.250Z,204.99
2023-05-01T06:20:39.264Z,206.67
2023-05-01T06:21:39.280Z,206.54
2023-05-01T06:22:39.211Z,206.67
2023-05-01T06:23:39.222Z,208.90
2023-05-01T06:24:39.184Z,208.64
2023-05-01T06:25:39.171Z,208.24
2023-05-01T06:26:39.226Z,210.38
2023-05-01T06:27:39.158Z,210.11
2023-05-01T06:28:39.170Z,211.19
2023-05-01T06:29:39.121Z,213.39
2023-05-01T06:30:39.145Z,215.63
2023-05-01T06:31:39.156Z,218.07
2023-05-01T06:32:39.129Z,220.12
2023-05-01T06:33:39.093Z,221.75
2023-05-01T06:34:39.131Z,224.18
2023-05-01T06:35:39.076Z,228.23
2023-05-01T06:36:39.063Z,228.07
2023-05-01T06:37:39.043Z,229.03
2023-05-01T06:38:39.079Z,231.61
2023-05-01T06:39:39.036Z,236.28
2023-05-01T06:40:39.022Z,235.44
2023-05-01T06:41:38.991Z,235.44
2023-05-01T06:42:39.025Z,237.82
2023-05-01T06:43:38.993Z,237.82
2023-05-01T06:44:38.993Z,238.00
2023-05-01T06:45:38.964Z,238.52
2023-05-01T06:46:38.970Z,241.32
2023-05-01T06:47:38.969Z,241.68
2023-05-01T06:48:38.925Z,244.56
2023-05-01T06:49:38.943Z,245.29
2023-05-01T06:50:38.893Z,246.03
2023-05-01T06:51:38.890Z,245.48
2023-05-01T06:52:38.964Z,248.07
2023-05-01T06:53:38.888Z,249.77
2023-05-01T06:54:38.878Z,252.27
2023-05-01T06:55:38.861Z,253.63
2023-05-01T06:56:38.859Z,256.01
2023-05-01T06:57:38.819Z,259.25
2023-05-01T06:58:38.856Z,260.27
2023-05-01T06:59:38.818Z,261.10
2023-05-01T07:00:38.806Z,261.73
2023-05-01T07:01:38.795Z,263.20
2023-05-01T07:02:38.887Z,267.05
2023-05-01T07:03:38.888Z,266.84
2023-05-01T07:04:38.792Z,267.27
2023-05-01T07:05:38.758Z,270.58
2023-05-01T07:06:38.754Z,271.92
2023-05-01T07:07:42.212Z,271.25
2023-05-01T07:08:39.721Z,273.51
2023-05-01T07:09:38.760Z,276.74
2023-05-01T07:10:40.543Z,277.67
2023-05-01T07:11:38.663Z,277.67
2023-05-01T07:12:38.650Z,280.05
2023-05-01T07:13:38.642Z,279.57
2023-05-01T07:14:38.665Z,278.62
2023-05-01T07:15:38.620Z,279.81
2023-05-01T07:16:38.636Z,279.33
2023-05-01T07:17:38.680Z,281.01
2023-05-01T07:18:38.602Z,281.49
2023-05-01T07:19:38.601Z,280.52
2023-05-01T07:20:38.586Z,282.21
2023-05-01T07:21:38.563Z,282.21
2023-05-01T07:22:38.563Z,283.68
2023-05-01T07:23:38.604Z,282.21
2023-05-01T07:24:38.605Z,283.92
2023-05-01T07:25:38.590Z,285.90
2023-05-01T07:26:38.503Z,286.40
2023-05-01T07:27:38.558Z,286.65
2023-05-01T07:28:38.480Z,286.40
2023-05-01T07:29:38.498Z,287.40
2023-05-01T07:30:38.492Z,290.97
2023-05-01T07:31:38.505Z,288.92
2023-05-01T07:32:38.463Z,290.71
2023-05-01T07:33:38.462Z,287.66
2023-05-01T07:34:38.445Z,289.18
2023-05-01T07:35:38.401Z,288.16
2023-05-01T07:36:38.439Z,288.67
2023-05-01T07:37:38.384Z,289.69
2023-05-01T07:38:38.391Z,288.92
2023-05-01T07:39:38.405Z,290.46
2023-05-01T07:40:38.382Z,290.97
2023-05-01T07:41:38.340Z,290.97
2023-05-01T07:42:38.365Z,290.97
2023-05-01T07:43:38.317Z,290.97
2023-05-01T07:44:38.411Z,291.75
2023-05-01T07:45:38.348Z,291.23
2023-05-01T07:46:38.313Z,289.69
2023-05-01T07:47:38.301Z,293.58
2023-05-01T07:48:39.165Z,294.37
2023-05-01T07:49:38.282Z,295.16
2023-05-01T07:50:38.263Z,295.96
2023-05-01T07:51:38.230Z,297.57
2023-05-01T07:52:38.221Z,297.30
2023-05-01T07:53:38.209Z,298.65
2023-05-01T07:54:38.222Z,298.38
2023-05-01T07:55:38.200Z,297.57
2023-05-01T07:56:38.167Z,298.92
2023-05-01T07:57:38.167Z,300.84
2023-05-01T07:58:38.155Z,301.40
2023-05-01T07:59:38.170Z,300.57
2023-05-01T08:00:38.274Z,301.67
2023-05-01T08:01:38.118Z,301.95
2023-05-01T08:02:38.248Z,302.79
2023-05-01T08:03:38.196Z,303.35
2023-05-01T08:04:38.149Z,304.76
2023-05-01T08:05:38.074Z,305.32
2023-05-01T08:06:38.142Z,308.48
2023-05-01T08:07:38.078Z,309.35
2023-05-01T08:08:38.051Z,309.35
2023-05-01T08:09:38.055Z,312.00
2023-05-01T08:10:38.013Z,311.41
2023-05-01T08:11:38.048Z,314.09
2023-05-01T08:12:38.005Z,313.19
2023-05-01T08:13:38.012Z,314.69
2023-05-01T08:14:38.006Z,316.21
2023-05-01T08:15:38.020Z,317.74
2023-05-01T08:16:38.070Z,318.98
2023-05-01T08:17:37.969Z,320.54
2023-05-01T08:18:37.941Z,320.54
2023-05-01T08:19:37.986Z,317.43
2023-05-01T08:20:37.940Z,317.43
2023-05-01T08:21:37.935Z,318.05
2023-05-01T08:22:37.886Z,324.66
2023-05-01T08:23:37.892Z,321.79
2023-05-01T08:24:37.877Z,319.91
2023-05-01T08:25:37.886Z,314.69
2023-05-01T08:26:37.870Z,309.64
2023-05-01T08:27:37.853Z,306.18
2023-05-01T08:28:37.850Z,299.47
2023-05-01T08:29:37.832Z,295.96
2023-05-01T08:30:37.822Z,289.69
2023-05-01T08:31:38.034Z,288.67
2023-05-01T08:32:37.810Z,281.97
2023-05-01T08:33:37.812Z,281.01
2023-05-01T08:34:37.772Z,286.90
2023-05-01T08:35:37.775Z,289.18
2023-05-01T08:36:37.752Z,289.69
2023-05-01T08:37:37.728Z,293.31
2023-05-01T08:38:37.744Z,295.16
2023-05-01T08:39:37.701Z,291.23
2023-05-01T08:40:37.746Z,294.89
2023-05-01T08:41:37.686Z,298.11
2023-05-01T08:42:37.688Z,300.29
2023-05-01T08:43:37.694Z,304.76
2023-05-01T08:44:37.692Z,307.61
2023-05-01T08:45:37.941Z,307.33
2023-05-01T08:46:37.745Z,303.91
2023-05-01T08:47:37.706Z,301.95
2023-05-01T08:48:37.649Z,299.20
2023-05-01T08:49:37.634Z,296.49
2023-05-01T08:50:37.593Z,294.37
2023-05-01T08:51:37.634Z,293.05
2023-05-01T08:52:41.437Z,286.65
2023-05-01T08:53:37.625Z,287.15
2023-05-01T08:54:37.538Z,293.05
2023-05-01T08:55:37.558Z,296.23
2023-05-01T08:56:37.517Z,301.95
2023-05-01T08:57:37.565Z,305.04
2023-05-01T08:58:37.504Z,312.00
2023-05-01T08:59:37.489Z,317.13
2023-05-01T09:00:37.515Z,324.34
2023-05-01T09:01:37.472Z,329.55
2023-05-01T09:02:37.491Z,332.55
2023-05-01T09:03:37.494Z,336.30
2023-05-01T09:04:37.444Z,339.43
2023-05-01T09:05:37.446Z,345.15
2023-05-01T09:06:37.533Z,350.31
2023-05-01T09:07:37.434Z,351.43
2023-05-01T09:08:37.395Z,357.17
2023-05-01T09:09:37.484Z,365.12
2023-05-01T09:10:37.384Z,371.32
2023-05-01T09:11:37.402Z,374.71
2023-05-01T09:12:37.379Z,377.30
2023-05-01T09:13:37.336Z,373.43
2023-05-01T09:14:37.332Z,373.01
2023-05-01T09:15:37.315Z,374.28
2023-05-01T09:16:37.384Z,380.18
2023-05-01T09:17:37.301Z,379.53
2023-05-01T09:18:37.308Z,384.79
2023-05-01T09:19:37.281Z,386.35
2023-05-01T09:20:37.306Z,390.65
2023-05-01T09:21:37.263Z,391.79
2023-05-01T09:22:37.267Z,398.35
2023-05-01T09:23:37.216Z,400.02
2023-05-01T09:24:37.256Z,402.43
2023-05-01T09:25:37.199Z,404.88
2023-05-01T09:26:37.246Z,407.35
2023-05-01T09:27:37.203Z,412.90
2023-05-01T09:28:37.198Z,411.37
2023-05-01T09:29:37.156Z,411.88
2023-05-01T09:30:37.178Z,417.55
2023-05-01T09:31:37.211Z,419.13
2023-05-01T09:32:37.166Z,418.08
2023-05-01T09:33:37.109Z,419.65
2023-05-01T09:34:37.114Z,420.18
2023-05-01T09:35:37.092Z,420.45
2023-05-01T09:36:37.097Z,419.65
2023-05-01T09:37:37.094Z,415.99
2023-05-01T09:38:37.065Z,411.88
2023-05-01T09:39:37.050Z,412.39
2023-05-01T09:40:37.062Z,415.99
2023-05-01T09:41:37.046Z,416.25
2023-05-01T09:42:37.014Z,417.55
2023-05-01T09:43:37.031Z,419.13
2023-05-01T09:44:36.987Z,420.18
2023-05-01T09:45:37.006Z,420.71
2023-05-01T09:46:37.116Z,409.10
2023-05-01T09:47:37.002Z,401.71
2023-05-01T09:48:36.952Z,388.82
2023-05-01T09:49:36.976Z,383.46
2023-05-01T09:50:36.935Z,375.14
2023-05-01T09:51:36.952Z,371.32
2023-05-01T09:52:36.924Z,369.64
2023-05-01T09:53:36.899Z,371.74
2023-05-01T09:54:36.932Z,375.57
2023-05-01T09:55:36.887Z,378.17
2023-05-01T09:56:36.904Z,382.36
2023-05-01T09:57:36.938Z,386.12
2023-05-01T09:58:36.895Z,386.35
2023-05-01T09:59:36.846Z,389.73
2023-05-01T10:00:36.838Z,392.72
2023-05-01T10:01:36.901Z,394.58
2023-05-01T10:02:36.850Z,394.81
2023-05-01T10:03:36.853Z,394.58
2023-05-01T10:04:36.782Z,398.35
2023-05-01T10:05:36.758Z,399.54
2023-05-01T10:06:36.887Z,402.43
2023-05-01T10:07:36.754Z,400.50
2023-05-01T10:08:36.735Z,404.39
2023-05-01T10:09:36.731Z,402.43
2023-05-01T10:10:36.734Z,398.82
2023-05-01T10:11:36.721Z,398.11
2023-05-01T10:12:36.684Z,400.50
2023-05-01T10:13:36.696Z,400.02
2023-05-01T10:14:36.664Z,406.61
2023-05-01T10:15:36.665Z,408.85
2023-05-01T10:16:36.726Z,411.62
2023-05-01T10:17:36.671Z,415.99
2023-05-01T10:18:36.632Z,417.55
2023-05-01T10:19:36.646Z,417.55
2023-05-01T10:20:36.601Z,418.08
2023-05-01T10:21:36.619Z,419.65
2023-05-01T10:22:36.601Z,419.65
2023-05-01T10:23:36.569Z,421.25
2023-05-01T10:24:36.563Z,419.13
2023-05-01T10:25:36.549Z,425.82
2023-05-01T10:26:36.605Z,428.83
2023-05-01T10:27:36.554Z,430.49
2023-05-01T10:28:36.521Z,433.85
2023-05-01T10:29:36.526Z,436.41
2023-05-01T10:30:36.527Z,439.28
2023-05-01T10:31:36.556Z,440.15
2023-05-01T10:32:36.533Z,440.73
2023-05-01T10:33:36.537Z,441.90
2023-05-01T10:34:36.447Z,444.26
2023-05-01T10:35:36.481Z,449.05
2023-05-01T10:36:36.454Z,448.44
2023-05-01T10:37:36.417Z,449.95
2023-05-01T10:38:36.436Z,454.25
2023-05-01T10:39:36.398Z,455.18
2023-05-01T10:40:36.384Z,455.49
2023-05-01T10:41:36.384Z,453.94
2023-05-01T10:42:36.388Z,452.09
2023-05-01T10:43:36.381Z,453.32
2023-05-01T10:44:36.376Z,456.42
2023-05-01T10:45:36.359Z,461.80
2023-05-01T10:46:36.368Z,470.60
2023-05-01T10:47:36.313Z,476.31
2023-05-01T10:48:36.318Z,486.38
2023-05-01T10:49:36.283Z,486.74
2023-05-01T10:50:36.269Z,489.96
2023-05-01T10:51:36.272Z,496.89
2023-05-01T10:52:36.242Z,500.62
2023-05-01T10:53:36.235Z,498.38
2023-05-01T10:54:36.242Z,504.41
2023-05-01T10:55:36.268Z,502.89
2023-05-01T10:56:36.213Z,505.56
2023-05-01T10:57:36.184Z,508.26
2023-05-01T10:58:36.195Z,508.64
2023-05-01T10:59:36.164Z,509.42
2023-05-01T11:00:36.170Z,509.03
2023-05-01T11:01:36.190Z,508.26
2023-05-01T11:02:36.243Z,505.94
2023-05-01T11:03:36.193Z,506.71
2023-05-01T11:04:36.126Z,503.27
2023-05-01T11:05:38.633Z,504.79
2023-05-01T11:06:36.183Z,509.42
2023-05-01T11:07:36.091Z,506.71
2023-05-01T11:08:36.094Z,506.33
2023-05-01T11:09:36.089Z,510.59
2023-05-01T11:10:36.060Z,513.34
2023-05-01T11:11:36.063Z,516.52
2023-05-01T11:12:36.056Z,513.34
2023-05-01T11:13:36.049Z,509.42
2023-05-01T11:14:36.012Z,506.71
2023-05-01T11:15:36.006Z,495.42
2023-05-01T11:16:36.072Z,499.87
2023-05-01T11:17:36.028Z,495.42
2023-05-01T11:18:36.017Z,480.43
2023-05-01T11:19:35.949Z,479.39
2023-05-01T11:20:35.966Z,478.70
2023-05-01T11:21:35.941Z,476.99
2023-05-01T11:22:35.980Z,471.93
2023-05-01T11:23:35.955Z,473.94
2023-05-01T11:24:35.905Z,466.32
2023-05-01T11:25:35.904Z,449.65
2023-05-01T11:26:36.661Z,437.55
2023-05-01T11:27:35.877Z,426.09
2023-05-01T11:28:35.901Z,414.44
2023-05-01T11:29:35.848Z,413.15
2023-05-01T11:30:35.840Z,411.12
2023-05-01T11:31:35.888Z,408.85
2023-05-01T11:32:35.884Z,414.70
2023-05-01T11:33:35.811Z,413.41
2023-05-01T11:34:35.785Z,417.29
2023-05-01T11:35:35.772Z,424.73
2023-05-01T11:36:35.768Z,432.45
2023-05-01T11:37:35.751Z,441.90
2023-05-01T11:38:35.781Z,442.78
2023-05-01T11:39:35.727Z,448.14
2023-05-01T11:40:35.736Z,451.48
2023-05-01T11:41:35.734Z,453.94
2023-05-01T11:42:35.766Z,453.32
2023-05-01T11:43:35.733Z,451.17
2023-05-01T11:44:35.700Z,449.05
2023-05-01T11:45:35.734Z,447.24
2023-05-01T11:46:35.789Z,442.49
2023-05-01T11:47:35.660Z,446.04
2023-05-01T11:48:35.683Z,448.74
2023-05-01T11:49:35.665Z,451.48
2023-05-01T11:50:35.845Z,453.01
2023-05-01T11:51:35.595Z,451.17
2023-05-01T11:52:35.599Z,455.49
2023-05-01T11:53:35.595Z,456.42
2023-05-01T11:54:35.570Z,463.08
2023-05-01T11:55:35.563Z,465.02
2023-05-01T11:56:35.555Z,466.97
2023-05-01T11:57:43.046Z,473.27
2023-05-01T11:58:35.536Z,469.93
2023-05-01T11:59:35.518Z,474.61
2023-05-01T12:00:35.499Z,477.33
2023-05-01T12:01:35.504Z,479.05
2023-05-01T12:02:35.615Z,474.95
2023-05-01T12:03:35.548Z,478.02
2023-05-01T12:04:35.514Z,481.47
2023-05-01T12:05:35.482Z,486.38
2023-05-01T12:06:35.499Z,490.68
2023-05-01T12:07:35.438Z,494.68
2023-05-01T12:08:35.428Z,499.87
2023-05-01T12:09:35.419Z,502.51
2023-05-01T12:10:35.681Z,504.41
2023-05-01T12:11:35.410Z,493.22
2023-05-01T12:12:35.371Z,498.01
2023-05-01T12:13:35.367Z,500.62
2023-05-01T12:14:35.384Z,500.62
2023-05-01T12:15:35.342Z,495.05
2023-05-01T12:16:35.476Z,498.38
2023-05-01T12:17:35.376Z,505.94
2023-05-01T12:18:35.305Z,506.33
2023-05-01T12:19:35.313Z,509.03
2023-05-01T12:20:35.318Z,513.74
2023-05-01T12:21:35.268Z,516.12
2023-05-01T12:22:35.264Z,514.53
2023-05-01T12:23:35.269Z,515.72
2023-05-01T12:24:35.246Z,518.94
2023-05-01T12:25:35.249Z,518.94
2023-05-01T12:26:35.229Z,519.34
2023-05-01T12:27:35.204Z,523.01
2023-05-01T12:28:35.205Z,521.78